createdAt,value
2018-07-06T00:01:28.141Z,100821.00
2018-07-06T00:04:08.270Z,100827.00
2018-07-06T00:06:48.718Z,100824.00
2018-07-06T00:09:28.901Z,100823.00
2018-07-06T00:12:09.341Z,100821.00
2018-07-06T00:14:49.471Z,100832.00
2018-07-06T00:17:29.999Z,100843.00
2018-07-06T00:20:10.199Z,100835.00
2018-07-06T00:22:50.360Z,100836.00
2018-07-06T00:25:30.613Z,100837.00
2018-07-06T00:28:10.898Z,100835.00
2018-07-06T00:30:51.131Z,100837.00
2018-07-06T00:33:31.282Z,100835.00
2018-07-06T00:36:11.663Z,100836.00
2018-07-06T00:38:51.931Z,100838.00
2018-07-06T00:41:32.206Z,100844.00
2018-07-06T00:44:12.457Z,100848.00
2018-07-06T00:46:52.653Z,100843.00
2018-07-06T00:49:32.967Z,100846.00
2018-07-06T00:52:13.133Z,100844.00
2018-07-06T00:54:53.817Z,100851.00
2018-07-06T00:57:37.693Z,100848.00
2018-07-06T01:00:18.008Z,100849.00
2018-07-06T01:02:58.421Z,100856.00
2018-07-06T01:05:38.607Z,100836.00
2018-07-06T01:08:18.909Z,100847.00
2018-07-06T01:10:59.217Z,100850.00
2018-07-06T01:13:39.509Z,100839.00
2018-07-06T01:16:20.112Z,100852.00
2018-07-06T01:19:00.253Z,100854.00
2018-07-06T01:21:40.322Z,100850.00
2018-07-06T01:24:20.609Z,100844.00
2018-07-06T01:27:00.855Z,100844.00
2018-07-06T01:29:41.101Z,100849.00
2018-07-06T01:32:21.335Z,100844.00
2018-07-06T01:35:01.718Z,100844.00
2018-07-06T01:37:41.874Z,100846.00
2018-07-06T01:40:22.225Z,100856.00
2018-07-06T01:43:02.572Z,100844.00
2018-07-06T01:45:42.759Z,100853.00
2018-07-06T01:48:23.047Z,100845.00
2018-07-06T01:51:03.143Z,100850.00
2018-07-06T01:53:43.345Z,100855.00
2018-07-06T01:56:23.753Z,100849.00
2018-07-06T01:59:03.949Z,100858.00
2018-07-06T02:01:44.039Z,100854.00
2018-07-06T02:04:24.416Z,100860.00
2018-07-06T02:07:04.666Z,100858.00
2018-07-06T02:09:44.812Z,100859.00
2018-07-06T02:12:25.101Z,100852.00
2018-07-06T02:15:05.246Z,100855.00
2018-07-06T02:17:45.521Z,100849.00
2018-07-06T02:20:25.765Z,100854.00
2018-07-06T02:23:05.898Z,100853.00
2018-07-06T02:25:46.126Z,100854.00
2018-07-06T02:28:26.614Z,100857.00
2018-07-06T02:31:06.864Z,100854.00
2018-07-06T02:33:47.009Z,100853.00
2018-07-06T02:36:27.248Z,100857.00
2018-07-06T02:39:07.284Z,100852.00
2018-07-06T02:41:47.535Z,100850.00
2018-07-06T02:44:27.869Z,100853.00
2018-07-06T02:47:08.288Z,100855.00
2018-07-06T02:49:48.417Z,100863.00
2018-07-06T02:52:28.706Z,100870.00
2018-07-06T02:55:09.079Z,100863.00
2018-07-06T02:57:49.344Z,100875.00
2018-07-06T03:00:29.872Z,100864.00
2018-07-06T03:03:10.769Z,100856.00
2018-07-06T03:05:51.304Z,100859.00
2018-07-06T03:08:31.828Z,100860.00
2018-07-06T03:11:12.366Z,100863.00
2018-07-06T03:13:52.723Z,100856.00
2018-07-06T03:16:33.033Z,100871.00
2018-07-06T03:19:13.646Z,100872.00
2018-07-06T03:21:54.284Z,100872.00
2018-07-06T03:24:35.016Z,100864.00
2018-07-06T03:27:15.744Z,100880.00
2018-07-06T03:29:56.343Z,100872.00
2018-07-06T03:32:37.011Z,100869.00
2018-07-06T03:35:17.567Z,100867.00
2018-07-06T03:37:58.310Z,100872.00
2018-07-06T03:40:39.365Z,100876.00
2018-07-06T03:43:21.240Z,100860.00
2018-07-06T03:46:01.893Z,100865.00
2018-07-06T03:48:42.610Z,100876.00
2018-07-06T03:51:22.845Z,100874.00
2018-07-06T03:54:03.810Z,100872.00
2018-07-06T03:56:45.072Z,100886.00
2018-07-06T03:59:25.570Z,100883.00
2018-07-06T04:02:06.308Z,100882.00
2018-07-06T04:04:47.302Z,100884.00
2018-07-06T04:07:27.790Z,100884.00
2018-07-06T04:10:08.767Z,100890.00
2018-07-06T04:12:49.642Z,100894.00
2018-07-06T04:15:31.322Z,100888.00
2018-07-06T04:18:12.068Z,100890.00
2018-07-06T04:20:52.664Z,100896.00
2018-07-06T04:23:33.454Z,100899.00
2018-07-06T04:26:14.065Z,100899.00
2018-07-06T04:28:55.140Z,100904.00
2018-07-06T04:31:35.830Z,100903.00
2018-07-06T04:34:16.368Z,100904.00
2018-07-06T04:36:57.072Z,100895.00
2018-07-06T04:39:37.921Z,100905.00
2018-07-06T04:42:18.738Z,100902.00
2018-07-06T04:44:59.568Z,100914.00
2018-07-06T04:47:40.086Z,100902.00
2018-07-06T04:50:20.662Z,100909.00
2018-07-06T04:53:02.924Z,100911.00
2018-07-06T04:55:43.603Z,100919.00
2018-07-06T04:58:24.048Z,100915.00
2018-07-06T05:01:05.691Z,100913.00
2018-07-06T05:03:46.608Z,100927.00
2018-07-06T05:06:27.982Z,100928.00
2018-07-06T05:09:08.928Z,100924.00
2018-07-06T05:11:49.883Z,100925.00
2018-07-06T05:14:30.064Z,100924.00
2018-07-06T05:17:10.944Z,100915.00
2018-07-06T05:19:52.017Z,100926.00
2018-07-06T05:22:32.628Z,100921.00
2018-07-06T05:25:13.494Z,100930.00
2018-07-06T05:27:54.220Z,100932.00
2018-07-06T05:30:35.272Z,100929.00
2018-07-06T05:33:16.081Z,100938.00
2018-07-06T05:35:56.585Z,100932.00
2018-07-06T05:38:37.304Z,100930.00
2018-07-06T05:41:17.975Z,100927.00
2018-07-06T05:43:58.660Z,100933.00
2018-07-06T05:46:39.671Z,100944.00
2018-07-06T05:49:20.129Z,100940.00
2018-07-06T05:52:01.056Z,100952.00
2018-07-06T05:54:41.716Z,100952.00
2018-07-06T05:57:22.569Z,100950.00
2018-07-06T06:00:03.081Z,100957.00
2018-07-06T06:02:44.039Z,100955.00
2018-07-06T06:05:25.184Z,100955.00
2018-07-06T06:07:53.524Z,100959.00
2018-07-06T06:10:24.001Z,100953.00
2018-07-06T06:12:54.855Z,100954.00
2018-07-06T06:15:25.138Z,100961.00
2018-07-06T06:17:55.583Z,100958.00
2018-07-06T06:20:25.550Z,100958.00
2018-07-06T06:22:55.601Z,100963.00
2018-07-06T06:25:26.153Z,100971.00
2018-07-06T06:27:56.380Z,100973.00
2018-07-06T06:30:26.375Z,100980.00
2018-07-06T06:32:56.380Z,100976.00
2018-07-06T06:35:26.869Z,100978.00
2018-07-06T06:37:56.655Z,100985.00
2018-07-06T06:40:26.928Z,100987.00
2018-07-06T06:42:57.231Z,100986.00
2018-07-06T06:45:27.683Z,100990.00
2018-07-06T06:47:57.935Z,100988.00
2018-07-06T06:50:27.684Z,100990.00
2018-07-06T06:52:57.769Z,100986.00
2018-07-06T06:55:27.974Z,100979.00
2018-07-06T06:57:57.885Z,100979.00
2018-07-06T07:00:27.869Z,100982.00
2018-07-06T07:02:57.997Z,100984.00
2018-07-06T07:05:27.957Z,100980.00
2018-07-06T07:07:57.627Z,100991.00
2018-07-06T07:10:27.777Z,100992.00
2018-07-06T07:12:57.384Z,100990.00
2018-07-06T07:15:26.841Z,100997.00
2018-07-06T07:17:56.514Z,100990.00
2018-07-06T07:20:26.371Z,100992.00
2018-07-06T07:22:56.461Z,101007.00
2018-07-06T07:25:26.409Z,100999.00
2018-07-06T07:27:56.373Z,100998.00
2018-07-06T07:30:26.239Z,101001.00
2018-07-06T07:32:56.361Z,100997.00
2018-07-06T07:35:26.455Z,100987.00
2018-07-06T07:37:56.316Z,100991.00
2018-07-06T07:40:26.521Z,100992.00
2018-07-06T07:42:57.476Z,100992.00
2018-07-06T07:45:27.516Z,101005.00
2018-07-06T07:47:57.492Z,100995.00
2018-07-06T07:50:26.922Z,101001.00
2018-07-06T07:53:07.361Z,101006.00
2018-07-06T07:55:36.961Z,101002.00
2018-07-06T07:58:06.580Z,100998.00
2018-07-06T08:00:36.872Z,101007.00
2018-07-06T08:03:06.937Z,101010.00
2018-07-06T08:05:36.889Z,101008.00
2018-07-06T08:08:07.019Z,101012.00
2018-07-06T08:10:36.733Z,101012.00
2018-07-06T08:13:06.546Z,101015.00
2018-07-06T08:15:36.329Z,101030.00
2018-07-06T08:18:06.476Z,101017.00
2018-07-06T08:20:36.321Z,101018.00
2018-07-06T08:23:06.563Z,101023.00
2018-07-06T08:25:36.793Z,101021.00
2018-07-06T08:28:06.736Z,101024.00
2018-07-06T08:30:36.358Z,101024.00
2018-07-06T08:33:06.392Z,101036.00
2018-07-06T08:36:22.213Z,101030.00
2018-07-06T08:38:51.876Z,101032.00
2018-07-06T08:41:21.493Z,101036.00
2018-07-06T08:43:52.083Z,101050.00
2018-07-06T08:46:21.732Z,101051.00
2018-07-06T08:48:51.574Z,101046.00
2018-07-06T08:51:21.392Z,101054.00
2018-07-06T08:53:51.438Z,101044.00
2018-07-06T08:56:21.633Z,101044.00
2018-07-06T08:58:51.458Z,101059.00
2018-07-06T09:01:21.140Z,101054.00
2018-07-06T09:03:51.334Z,101058.00
2018-07-06T09:06:21.345Z,101051.00
2018-07-06T09:08:51.600Z,101058.00
2018-07-06T09:11:21.627Z,101054.00
2018-07-06T09:13:52.223Z,101063.00
2018-07-06T09:16:21.909Z,101057.00
2018-07-06T09:18:51.644Z,101065.00
2018-07-06T09:21:21.655Z,101059.00
2018-07-06T09:23:51.884Z,101062.00
2018-07-06T09:26:21.744Z,101062.00
2018-07-06T09:28:51.955Z,101062.00
2018-07-06T09:31:21.889Z,101071.00
2018-07-06T09:33:52.106Z,101056.00
2018-07-06T09:36:21.950Z,101054.00
2018-07-06T09:38:51.538Z,101056.00
2018-07-06T09:41:21.247Z,101052.00
2018-07-06T09:43:51.162Z,101043.00
2018-07-06T09:46:21.034Z,101046.00
2018-07-06T09:48:51.272Z,101054.00
2018-07-06T09:51:21.341Z,101043.00
2018-07-06T09:53:51.601Z,101053.00
2018-07-06T09:56:21.396Z,101052.00
2018-07-06T09:58:51.412Z,101046.00
2018-07-06T10:01:21.201Z,101053.00
2018-07-06T10:03:51.339Z,101055.00
2018-07-06T10:06:21.686Z,101053.00
2018-07-06T10:08:51.548Z,101046.00
2018-07-06T10:11:21.473Z,101055.00
2018-07-06T10:13:51.612Z,101048.00
2018-07-06T10:16:22.001Z,101058.00
2018-07-06T10:18:52.590Z,101063.00
2018-07-06T10:21:22.758Z,101072.00
2018-07-06T10:23:52.937Z,101062.00
2018-07-06T10:26:23.224Z,101072.00
2018-07-06T10:29:19.056Z,101073.00
2018-07-06T10:32:27.820Z,101072.00
2018-07-06T10:34:58.422Z,101074.00
2018-07-06T10:37:28.934Z,101085.00
2018-07-06T10:39:59.448Z,101066.00
2018-07-06T10:42:29.182Z,101073.00
2018-07-06T10:44:59.540Z,101074.00
2018-07-06T10:47:30.016Z,101075.00
2018-07-06T10:49:59.675Z,101073.00
2018-07-06T10:52:29.687Z,101079.00
2018-07-06T10:54:59.676Z,101079.00
2018-07-06T10:57:28.988Z,101088.00
2018-07-06T10:59:58.997Z,101075.00
2018-07-06T11:02:29.012Z,101081.00
2018-07-06T11:04:58.737Z,101093.00
2018-07-06T11:07:28.912Z,101083.00
2018-07-06T11:09:58.707Z,101089.00
2018-07-06T11:12:28.724Z,101087.00
2018-07-06T11:14:58.693Z,101092.00
2018-07-06T11:17:28.333Z,101093.00
2018-07-06T11:19:58.818Z,101107.00
2018-07-06T11:22:29.048Z,101114.00
2018-07-06T11:24:59.308Z,101108.00
2018-07-06T11:27:29.954Z,101113.00
2018-07-06T11:29:59.868Z,101112.00
2018-07-06T11:32:29.599Z,101122.00
2018-07-06T11:35:00.194Z,101115.00
2018-07-06T11:37:30.303Z,101115.00
2018-07-06T11:40:00.378Z,101118.00
2018-07-06T11:42:30.244Z,101121.00
2018-07-06T11:45:00.310Z,101119.00
2018-07-06T11:47:30.364Z,101118.00
2018-07-06T11:50:00.332Z,101115.00
2018-07-06T11:52:30.164Z,101120.00
2018-07-06T11:55:00.330Z,101115.00
2018-07-06T11:57:30.168Z,101119.00
2018-07-06T12:00:00.288Z,101131.00
2018-07-06T12:02:30.209Z,101123.00
2018-07-06T12:04:59.886Z,101130.00
2018-07-06T12:07:29.770Z,101129.00
2018-07-06T12:09:59.628Z,101125.00
2018-07-06T12:12:29.929Z,101117.00
2018-07-06T12:14:59.822Z,101118.00
2018-07-06T12:17:29.206Z,101121.00
2018-07-06T12:19:59.008Z,101126.00
2018-07-06T12:22:28.946Z,101119.00
2018-07-06T12:24:59.684Z,101121.00
2018-07-06T12:27:29.402Z,101124.00
2018-07-06T12:29:59.650Z,101123.00
2018-07-06T12:32:29.916Z,101132.00
2018-07-06T12:35:00.289Z,101123.00
2018-07-06T12:37:30.108Z,101104.00
2018-07-06T12:39:59.816Z,101111.00
2018-07-06T12:42:30.187Z,101108.00
2018-07-06T12:45:01.122Z,101113.00
2018-07-06T12:47:35.342Z,101110.00
2018-07-06T12:50:05.968Z,101109.00
2018-07-06T12:52:36.502Z,101103.00
2018-07-06T12:55:06.511Z,101113.00
2018-07-06T12:57:36.421Z,101102.00
2018-07-06T13:00:06.274Z,101104.00
2018-07-06T13:02:36.441Z,101080.00
2018-07-06T13:05:06.299Z,101092.00
2018-07-06T13:07:35.940Z,101096.00
2018-07-06T13:10:06.016Z,101104.00
2018-07-06T13:12:36.295Z,101093.00
2018-07-06T13:15:06.479Z,101091.00
2018-07-06T13:17:36.230Z,101100.00
2018-07-06T13:20:06.477Z,101102.00
2018-07-06T13:22:36.531Z,101094.00
2018-07-06T13:25:07.790Z,101092.00
2018-07-06T13:27:37.829Z,101084.00
2018-07-06T13:30:08.613Z,101094.00
2018-07-06T13:32:39.013Z,101093.00
2018-07-06T13:35:09.598Z,101091.00
2018-07-06T13:37:41.027Z,101090.00
2018-07-06T13:40:11.217Z,101090.00
2018-07-06T13:42:41.487Z,101103.00
2018-07-06T13:45:12.009Z,101106.00
2018-07-06T13:47:41.880Z,101109.00
2018-07-06T13:50:11.897Z,101107.00
2018-07-06T13:52:41.624Z,101107.00
2018-07-06T13:55:11.713Z,101096.00
2018-07-06T13:57:41.650Z,101107.00
2018-07-06T14:00:11.801Z,101100.00
2018-07-06T14:02:41.885Z,101090.00
2018-07-06T14:05:11.691Z,101094.00
2018-07-06T14:07:41.389Z,101100.00
2018-07-06T14:10:11.583Z,101103.00
2018-07-06T14:12:42.824Z,101095.00
2018-07-06T14:15:13.330Z,101099.00
2018-07-06T14:17:43.723Z,101104.00
2018-07-06T14:20:14.109Z,101094.00
2018-07-06T14:22:47.065Z,101099.00
2018-07-06T14:25:17.140Z,101104.00
2018-07-06T14:27:47.223Z,101100.00
2018-07-06T14:30:16.910Z,101096.00
2018-07-06T14:32:47.194Z,101103.00
2018-07-06T14:35:17.047Z,101102.00
2018-07-06T14:37:47.000Z,101088.00
2018-07-06T14:40:17.138Z,101092.00
2018-07-06T14:42:46.675Z,101101.00
2018-07-06T14:45:17.700Z,101090.00
2018-07-06T14:47:47.960Z,101089.00
2018-07-06T14:50:17.852Z,101093.00
2018-07-06T14:52:47.986Z,101096.00
2018-07-06T14:55:17.917Z,101087.00
2018-07-06T14:57:48.067Z,101102.00
2018-07-06T15:00:18.322Z,101081.00
2018-07-06T15:02:48.499Z,101089.00
2018-07-06T15:05:18.645Z,101085.00
2018-07-06T15:07:48.655Z,101085.00
2018-07-06T15:10:18.971Z,101086.00
2018-07-06T15:12:49.049Z,101093.00
2018-07-06T15:15:19.301Z,101082.00
2018-07-06T15:17:49.149Z,101082.00
2018-07-06T15:20:18.797Z,101089.00
2018-07-06T15:22:48.735Z,101086.00
2018-07-06T15:25:18.626Z,101090.00
2018-07-06T15:27:49.036Z,101093.00
2018-07-06T15:30:19.023Z,101090.00
2018-07-06T15:32:48.857Z,101080.00
2018-07-06T15:35:18.983Z,101095.00
2018-07-06T15:37:49.845Z,101085.00
2018-07-06T15:40:19.839Z,101100.00
2018-07-06T15:42:50.137Z,101088.00
2018-07-06T15:45:19.893Z,101090.00
2018-07-06T15:47:49.495Z,101092.00
2018-07-06T15:50:19.060Z,101086.00
2018-07-06T15:52:48.941Z,101109.00
2018-07-06T15:55:21.011Z,101093.00
2018-07-06T15:57:51.257Z,101091.00
2018-07-06T16:00:20.927Z,101100.00
2018-07-06T16:02:50.861Z,101089.00
2018-07-06T16:05:20.770Z,101090.00
2018-07-06T16:07:51.416Z,101088.00
2018-07-06T16:10:21.463Z,101106.00
2018-07-06T16:12:50.883Z,101105.00
2018-07-06T16:15:21.493Z,101103.00
2018-07-06T16:17:51.404Z,101117.00
2018-07-06T16:20:21.403Z,101115.00
2018-07-06T16:22:51.329Z,101113.00
2018-07-06T16:25:21.528Z,101107.00
2018-07-06T16:27:52.943Z,101113.00
2018-07-06T16:30:23.177Z,101118.00
2018-07-06T16:32:53.891Z,101131.00
2018-07-06T16:35:24.219Z,101121.00
2018-07-06T16:37:54.721Z,101118.00
2018-07-06T16:40:24.629Z,101119.00
2018-07-06T16:42:54.495Z,101117.00
2018-07-06T16:45:24.529Z,101120.00
2018-07-06T16:47:54.513Z,101116.00
2018-07-06T16:50:24.186Z,101131.00
2018-07-06T16:52:53.940Z,101126.00
2018-07-06T16:55:24.173Z,101136.00
2018-07-06T16:57:54.441Z,101129.00
2018-07-06T17:00:25.235Z,101130.00
2018-07-06T17:02:55.415Z,101133.00
2018-07-06T17:05:24.855Z,101137.00
2018-07-06T17:07:54.269Z,101135.00
2018-07-06T17:10:24.175Z,101138.00
2018-07-06T17:12:54.007Z,101137.00
2018-07-06T17:15:24.024Z,101135.00
2018-07-06T17:17:54.015Z,101145.00
2018-07-06T17:20:24.267Z,101145.00
2018-07-06T17:22:59.335Z,101153.00
2018-07-06T17:25:31.440Z,101149.00
2018-07-06T17:28:02.985Z,101155.00
2018-07-06T17:30:33.629Z,101152.00
2018-07-06T17:33:04.580Z,101150.00
2018-07-06T17:35:40.433Z,101157.00
2018-07-06T17:38:11.888Z,101156.00
2018-07-06T17:40:44.948Z,101161.00
2018-07-06T17:43:15.890Z,101158.00
2018-07-06T17:45:47.445Z,101165.00
2018-07-06T17:48:20.337Z,101166.00
2018-07-06T17:50:51.101Z,101161.00
2018-07-06T17:53:21.907Z,101160.00
2018-07-06T17:55:52.940Z,101165.00
2018-07-06T17:58:23.668Z,101168.00
2018-07-06T18:00:54.598Z,101164.00
2018-07-06T18:03:26.447Z,101178.00
2018-07-06T18:05:57.594Z,101178.00
2018-07-06T18:08:29.872Z,101179.00
2018-07-06T18:11:01.192Z,101175.00
2018-07-06T18:13:32.241Z,101181.00
2018-07-06T18:16:04.855Z,101175.00
2018-07-06T18:18:36.673Z,101181.00
2018-07-06T18:21:10.146Z,101184.00
2018-07-06T18:23:40.685Z,101186.00
2018-07-06T18:26:11.975Z,101189.00
2018-07-06T18:28:43.547Z,101189.00
2018-07-06T18:31:14.646Z,101187.00
2018-07-06T18:33:46.708Z,101182.00
2018-07-06T18:36:17.987Z,101184.00
2018-07-06T18:38:52.113Z,101185.00
2018-07-06T18:41:25.193Z,101181.00
2018-07-06T18:43:56.728Z,101180.00
2018-07-06T18:46:28.781Z,101181.00
2018-07-06T18:48:59.553Z,101191.00
2018-07-06T18:51:30.881Z,101188.00
2018-07-06T18:54:01.972Z,101189.00
2018-07-06T18:56:33.590Z,101191.00
2018-07-06T18:59:07.004Z,101202.00
2018-07-06T19:01:38.751Z,101195.00
2018-07-06T19:04:10.345Z,101205.00
2018-07-06T19:06:41.514Z,101209.00
2018-07-06T19:09:12.216Z,101212.00
2018-07-06T19:11:44.294Z,101215.00
2018-07-06T19:14:17.002Z,101216.00
2018-07-06T19:16:47.943Z,101226.00
2018-07-06T19:19:19.268Z,101220.00
2018-07-06T19:21:50.407Z,101226.00
2018-07-06T19:24:21.260Z,101227.00
2018-07-06T19:26:52.476Z,101229.00
2018-07-06T19:29:24.608Z,101227.00
2018-07-06T19:31:56.194Z,101232.00
2018-07-06T19:34:27.208Z,101247.00
2018-07-06T19:36:57.372Z,101244.00
2018-07-06T19:39:27.492Z,101258.00
2018-07-06T19:41:57.637Z,101256.00
2018-07-06T19:44:27.443Z,101251.00
2018-07-06T19:46:57.304Z,101262.00
2018-07-06T19:49:26.776Z,101270.00
2018-07-06T19:51:56.357Z,101274.00
2018-07-06T19:54:26.296Z,101270.00
2018-07-06T19:56:55.687Z,101272.00
2018-07-06T19:59:24.853Z,101279.00
2018-07-06T20:01:54.132Z,101284.00
2018-07-06T20:04:23.430Z,101286.00
2018-07-06T20:06:52.882Z,101284.00
2018-07-06T20:09:22.074Z,101292.00
2018-07-06T20:11:51.203Z,101291.00
2018-07-06T20:14:20.372Z,101297.00
2018-07-06T20:16:49.406Z,101306.00
2018-07-06T20:19:18.532Z,101298.00
2018-07-06T20:21:47.611Z,101306.00
2018-07-06T20:24:16.934Z,101309.00
2018-07-06T20:26:46.034Z,101314.00
2018-07-06T20:29:15.434Z,101320.00
2018-07-06T20:31:44.496Z,101314.00
2018-07-06T20:34:13.683Z,101332.00
2018-07-06T20:36:43.043Z,101318.00
2018-07-06T20:39:12.658Z,101322.00
2018-07-06T20:41:41.749Z,101326.00
2018-07-06T20:44:10.908Z,101330.00
2018-07-06T20:46:40.112Z,101339.00
2018-07-06T20:49:09.454Z,101333.00
2018-07-06T20:51:38.552Z,101337.00
2018-07-06T20:54:07.952Z,101335.00
2018-07-06T20:56:37.356Z,101333.00
2018-07-06T20:59:06.890Z,101345.00
2018-07-06T21:01:36.075Z,101346.00
2018-07-06T21:04:05.646Z,101352.00
2018-07-06T21:06:34.788Z,101345.00
2018-07-06T21:09:04.996Z,101349.00
2018-07-06T21:11:34.148Z,101350.00
2018-07-06T21:14:03.354Z,101359.00
2018-07-06T21:16:32.670Z,101365.00
2018-07-06T21:19:01.890Z,101370.00
2018-07-06T21:21:31.118Z,101371.00
2018-07-06T21:24:00.212Z,101377.00
2018-07-06T21:26:29.451Z,101379.00
2018-07-06T21:28:58.658Z,101382.00
2018-07-06T21:31:27.755Z,101378.00
2018-07-06T21:33:57.004Z,101385.00
2018-07-06T21:36:26.366Z,101375.00
2018-07-06T21:38:55.631Z,101378.00
2018-07-06T21:41:25.097Z,101378.00
2018-07-06T21:43:54.496Z,101388.00
2018-07-06T21:46:23.990Z,101377.00
2018-07-06T21:48:53.277Z,101391.00
2018-07-06T21:51:22.353Z,101389.00
2018-07-06T21:53:51.600Z,101390.00
2018-07-06T21:56:20.988Z,101390.00
2018-07-06T21:58:50.378Z,101394.00
2018-07-06T22:01:20.055Z,101389.00
2018-07-06T22:03:49.366Z,101389.00
2018-07-06T22:06:18.552Z,101387.00
2018-07-06T22:08:48.128Z,101386.00
2018-07-06T22:11:17.532Z,101386.00
2018-07-06T22:13:46.766Z,101391.00
2018-07-06T22:16:16.021Z,101394.00
2018-07-06T22:18:45.254Z,101390.00
2018-07-06T22:21:14.591Z,101398.00
2018-07-06T22:23:43.892Z,101393.00
2018-07-06T22:26:13.082Z,101402.00
2018-07-06T22:28:42.326Z,101407.00
2018-07-06T22:31:11.590Z,101414.00
2018-07-06T22:33:40.864Z,101406.00
2018-07-06T22:36:10.182Z,101417.00
2018-07-06T22:38:39.372Z,101409.00
2018-07-06T22:41:08.479Z,101414.00
2018-07-06T22:43:37.684Z,101411.00
2018-07-06T22:46:07.042Z,101408.00
2018-07-06T22:48:36.700Z,101399.00
2018-07-06T22:51:06.018Z,101404.00
2018-07-06T22:53:35.862Z,101404.00
2018-07-06T22:56:05.290Z,101410.00
2018-07-06T22:58:34.559Z,101411.00
2018-07-06T23:01:03.700Z,101403.00
2018-07-06T23:03:32.993Z,101409.00
2018-07-06T23:06:02.359Z,101398.00
2018-07-06T23:08:31.622Z,101403.00
2018-07-06T23:11:00.779Z,101407.00
2018-07-06T23:13:30.608Z,101402.00
2018-07-06T23:15:59.752Z,101401.00
2018-07-06T23:18:29.037Z,101401.00
2018-07-06T23:20:58.299Z,101397.00
2018-07-06T23:23:27.390Z,101398.00
2018-07-06T23:25:56.571Z,101392.00
2018-07-06T23:28:25.855Z,101400.00
2018-07-06T23:30:55.305Z,101390.00
2018-07-06T23:33:24.678Z,101384.00
2018-07-06T23:35:53.877Z,101388.00
2018-07-06T23:38:23.154Z,101382.00
2018-07-06T23:40:52.130Z,101384.00
2018-07-06T23:43:21.652Z,101390.00
2018-07-06T23:45:50.974Z,101398.00
2018-07-06T23:48:20.467Z,101391.00
2018-07-06T23:50:49.878Z,101390.00
2018-07-06T23:53:19.176Z,101398.00
2018-07-06T23:55:48.479Z,101398.00
2018-07-06T23:58:17.771Z,101382.00
